Time;durP1;ratioP1;P1;durP2;ratioP2;P2;SDS_P1;SDS_P2;PMS_P1;PMS_P2;Temp;Humidity;BMP_temperature;BMP_pressure;BME280_temperature;BME280_humidity;BME280_pressure;Samples;Min_cycle;Max_cycle;Signal;HPM_P1;HPM_P2
2021/05/09 00:01:29;;;;;;;2.70;2.33;;;;;;;;;;5091124;28;20593;-59
2021/05/09 00:03:57;;;;;;;3.27;2.23;;;;;;;;;;5091949;28;20224;-59
2021/05/09 00:06:24;;;;;;;4.43;2.70;;;;;;;;;;5091840;28;20215;-59
2021/05/09 00:08:50;;;;;;;4.80;2.30;;;;;;;;;;5091198;28;20204;-59
2021/05/09 00:11:17;;;;;;;3.53;2.40;;;;;;;;;;5091474;28;20201;-60
2021/05/09 00:13:44;;;;;;;4.43;3.00;;;;;;;;;;5091427;28;20580;-60
2021/05/09 00:16:11;;;;;;;2.57;2.30;;;;;;;;;;5090848;28;20257;-60
2021/05/09 00:18:37;;;;;;;3.67;2.53;;;;;;;;;;5090839;28;20227;-59
2021/05/09 00:21:05;;;;;;;2.50;2.30;;;;;;;;;;5091012;28;20224;-59
2021/05/09 00:23:32;;;;;;;4.17;2.33;;;;;;;;;;5091149;28;20649;-58
2021/05/09 00:25:58;;;;;;;4.03;2.60;;;;;;;;;;5091089;28;20676;-60
2021/05/09 00:28:25;;;;;;;2.90;2.47;;;;;;;;;;5091898;28;20213;-60
2021/05/09 00:30:51;;;;;;;4.10;2.60;;;;;;;;;;5094950;28;20211;-60
2021/05/09 00:33:18;;;;;;;3.27;2.40;;;;;;;;;;5094591;28;20598;-59
2021/05/09 00:35:44;;;;;;;3.23;2.20;;;;;;;;;;5095009;28;20544;-59
2021/05/09 00:38:13;;;;;;;3.37;2.50;;;;;;;;;;5094806;28;20204;-60
2021/05/09 00:40:39;;;;;;;2.80;2.47;;;;;;;;;;5094095;28;20210;-60
2021/05/09 00:43:06;;;;;;;3.83;2.40;;;;;;;;;;5094595;28;20636;-59
2021/05/09 00:45:32;;;;;;;4.93;2.97;;;;;;;;;;5094669;28;20204;-62
2021/05/09 00:47:59;;;;;;;2.97;2.30;;;;;;;;;;5094012;28;20571;-59
2021/05/09 00:50:25;;;;;;;3.63;2.53;;;;;;;;;;5094683;28;20210;-60
2021/05/09 00:52:52;;;;;;;4.97;2.30;;;;;;;;;;5094545;28;20228;-60
2021/05/09 00:55:20;;;;;;;4.67;2.77;;;;;;;;;;5094153;28;20207;-58
2021/05/09 00:57:47;;;;;;;3.33;2.50;;;;;;;;;;5094465;28;20215;-60
2021/05/09 01:00:14;;;;;;;5.37;3.00;;;;;;;;;;5093815;28;20620;-60
2021/05/09 01:02:42;;;;;;;3.97;2.90;;;;;;;;;;5093473;28;20341;-59
2021/05/09 01:05:09;;;;;;;7.43;2.80;;;;;;;;;;5094596;28;20851;-60
2021/05/09 01:07:36;;;;;;;4.20;2.70;;;;;;;;;;5094027;28;20215;-59
2021/05/09 01:10:04;;;;;;;4.10;2.77;;;;;;;;;;5093971;28;20241;-58
2021/05/09 01:12:32;;;;;;;4.77;2.73;;;;;;;;;;5093984;28;20967;-59
2021/05/09 01:14:58;;;;;;;5.13;2.60;;;;;;;;;;5094324;28;20214;-59
2021/05/09 01:17:25;;;;;;;5.30;2.60;;;;;;;;;;5093814;28;20207;-60
2021/05/09 01:19:52;;;;;;;2.60;2.30;;;;;;;;;;5093434;28;20218;-60
2021/05/09 01:22:19;;;;;;;3.13;2.77;;;;;;;;;;5093977;28;20211;-59
2021/05/09 01:24:46;;;;;;;4.53;2.90;;;;;;;;;;5094007;28;20208;-60
2021/05/09 01:27:12;;;;;;;3.83;2.40;;;;;;;;;;5094343;28;20211;-60
2021/05/09 01:29:39;;;;;;;5.33;2.70;;;;;;;;;;5093473;28;20675;-59
2021/05/09 01:32:07;;;;;;;2.53;2.20;;;;;;;;;;5093551;28;20226;-59
2021/05/09 01:34:34;;;;;;;3.43;2.40;;;;;;;;;;5093687;28;20227;-58
2021/05/09 01:37:01;;;;;;;5.10;2.87;;;;;;;;;;5093702;28;20208;-59
2021/05/09 01:39:29;;;;;;;4.33;2.90;;;;;;;;;;5092786;28;20672;-59
2021/05/09 01:41:56;;;;;;;3.97;2.80;;;;;;;;;;5093011;28;20268;-60
2021/05/09 01:44:23;;;;;;;4.13;2.97;;;;;;;;;;5093342;28;20703;-60
2021/05/09 01:46:49;;;;;;;3.90;2.57;;;;;;;;;;5093384;28;20208;-60
2021/05/09 01:49:16;;;;;;;5.07;2.93;;;;;;;;;;5093600;28;20586;-58
2021/05/09 01:51:42;;;;;;;4.37;2.83;;;;;;;;;;5092914;28;20204;-59
2021/05/09 01:54:09;;;;;;;4.57;2.90;;;;;;;;;;5092840;28;20289;-60
2021/05/09 01:56:36;;;;;;;4.67;3.07;;;;;;;;;;5092986;28;20215;-60
2021/05/09 01:59:03;;;;;;;2.83;2.57;;;;;;;;;;5092740;28;20212;-60
2021/05/09 02:01:30;;;;;;;4.30;2.70;;;;;;;;;;5092903;28;20213;-60
2021/05/09 02:03:57;;;;;;;2.97;2.67;;;;;;;;;;5093003;28;20729;-58
2021/05/09 02:06:23;;;;;;;2.93;2.63;;;;;;;;;;5093369;28;20201;-59
2021/05/09 02:08:50;;;;;;;3.97;2.60;;;;;;;;;;5093002;28;20213;-60
2021/05/09 02:11:16;;;;;;;4.07;2.67;;;;;;;;;;5092994;28;20202;-58
2021/05/09 02:13:44;;;;;;;6.70;3.57;;;;;;;;;;5092825;28;20243;-59
2021/05/09 02:16:10;;;;;;;4.63;2.90;;;;;;;;;;5092499;28;20211;-60
2021/05/09 02:18:37;;;;;;;4.30;2.87;;;;;;;;;;5092479;28;20205;-59
2021/05/09 02:21:04;;;;;;;5.40;2.70;;;;;;;;;;5092551;28;20211;-56
2021/05/09 02:23:30;;;;;;;4.03;2.67;;;;;;;;;;5093051;28;20246;-60
2021/05/09 02:25:57;;;;;;;3.70;2.60;;;;;;;;;;5092247;28;20206;-59
2021/05/09 02:28:23;;;;;;;3.07;2.13;;;;;;;;;;5091863;28;20208;-60
2021/05/09 02:30:51;;;;;;;3.17;2.17;;;;;;;;;;5092562;28;20208;-60
2021/05/09 02:33:17;;;;;;;4.63;2.47;;;;;;;;;;5092569;28;20276;-60
2021/05/09 02:35:44;;;;;;;3.77;2.50;;;;;;;;;;5092901;28;20644;-59
2021/05/09 02:38:10;;;;;;;4.27;2.80;;;;;;;;;;5092347;28;20217;-60
2021/05/09 02:40:37;;;;;;;4.10;2.60;;;;;;;;;;5092582;28;20218;-59
2021/05/09 02:43:03;;;;;;;4.00;2.57;;;;;;;;;;5092588;28;20234;-59
2021/05/09 02:45:30;;;;;;;3.90;2.63;;;;;;;;;;5092603;28;20211;-60
2021/05/09 02:47:57;;;;;;;3.87;2.60;;;;;;;;;;5092265;28;20211;-60
2021/05/09 02:50:24;;;;;;;4.40;2.53;;;;;;;;;;5092362;28;20284;-59
2021/05/09 02:52:50;;;;;;;3.73;2.70;;;;;;;;;;5092043;28;20224;-60
2021/05/09 02:55:17;;;;;;;4.90;2.37;;;;;;;;;;5092337;28;20204;-60
2021/05/09 02:57:44;;;;;;;4.30;2.60;;;;;;;;;;5092315;28;20207;-58
2021/05/09 03:00:11;;;;;;;3.73;2.10;;;;;;;;;;5092175;28;20207;-58
2021/05/09 03:02:38;;;;;;;3.67;2.50;;;;;;;;;;5092321;28;20231;-59
2021/05/09 03:05:05;;;;;;;3.87;2.27;;;;;;;;;;5092098;28;20694;-60
2021/05/09 03:07:32;;;;;;;5.53;2.50;;;;;;;;;;5092136;28;20204;-59
2021/05/09 03:09:58;;;;;;;5.40;3.00;;;;;;;;;;5091426;28;20208;-60
2021/05/09 03:12:25;;;;;;;4.13;2.50;;;;;;;;;;5092360;28;20267;-60
2021/05/09 03:14:51;;;;;;;3.47;2.50;;;;;;;;;;5091778;28;20711;-60
2021/05/09 03:17:18;;;;;;;2.60;2.40;;;;;;;;;;5092080;28;20606;-59
2021/05/09 03:19:44;;;;;;;5.37;2.90;;;;;;;;;;5092160;28;20214;-60
2021/05/09 03:22:12;;;;;;;2.87;2.57;;;;;;;;;;5092355;28;20212;-59
2021/05/09 03:24:38;;;;;;;4.03;2.50;;;;;;;;;;5093152;28;20231;-59
2021/05/09 03:27:05;;;;;;;3.47;2.70;;;;;;;;;;5092771;28;20218;-59
2021/05/09 03:29:32;;;;;;;3.20;2.60;;;;;;;;;;5091410;28;20213;-60
2021/05/09 03:31:58;;;;;;;2.40;2.20;;;;;;;;;;5091643;28;20208;-60
2021/05/09 03:34:25;;;;;;;4.03;2.20;;;;;;;;;;5092365;28;20227;-59
2021/05/09 03:36:51;;;;;;;2.33;2.13;;;;;;;;;;5092601;28;20586;-59
2021/05/09 03:39:20;;;;;;;2.53;2.30;;;;;;;;;;5091992;28;20213;-60
2021/05/09 03:41:47;;;;;;;2.27;2.07;;;;;;;;;;5091882;28;20204;-59
2021/05/09 03:44:13;;;;;;;4.23;2.47;;;;;;;;;;5090972;28;20242;-59
2021/05/09 03:46:40;;;;;;;3.47;2.77;;;;;;;;;;5091767;28;20211;-59
2021/05/09 03:49:06;;;;;;;3.07;2.57;;;;;;;;;;5091403;28;20222;-60
2021/05/09 03:51:33;;;;;;;3.23;2.23;;;;;;;;;;5091364;28;20225;-57
2021/05/09 03:53:59;;;;;;;4.17;2.33;;;;;;;;;;5091618;28;20278;-59
2021/05/09 03:56:27;;;;;;;2.90;2.20;;;;;;;;;;5091923;28;20207;-59
2021/05/09 03:58:53;;;;;;;4.53;2.30;;;;;;;;;;5091452;28;20252;-58
2021/05/09 04:01:20;;;;;;;3.70;2.30;;;;;;;;;;5091075;28;20647;-59
2021/05/09 04:03:46;;;;;;;3.00;2.50;;;;;;;;;;5093031;28;20276;-60
2021/05/09 04:06:13;;;;;;;2.73;2.10;;;;;;;;;;5094962;28;20218;-60
2021/05/09 04:08:39;;;;;;;2.23;2.03;;;;;;;;;;5095312;28;20204;-59
2021/05/09 04:11:10;;;;;;;5.27;2.30;;;;;;;;;;5095047;28;20214;-60
2021/05/09 04:13:44;;;;;;;7.00;2.40;;;;;;;;;;5095170;28;20228;-60
2021/05/09 04:16:10;;;;;;;2.93;2.20;;;;;;;;;;5094680;28;20204;-60
2021/05/09 04:18:37;;;;;;;2.70;2.30;;;;;;;;;;5094586;28;20211;-60
2021/05/09 04:21:04;;;;;;;3.03;2.10;;;;;;;;;;5095294;28;20215;-59
2021/05/09 04:23:30;;;;;;;2.57;2.37;;;;;;;;;;5094892;28;20228;-60
2021/05/09 04:25:57;;;;;;;4.80;2.50;;;;;;;;;;5094798;28;20204;-60
2021/05/09 04:28:23;;;;;;;2.40;2.17;;;;;;;;;;5094647;28;20212;-60
2021/05/09 04:30:52;;;;;;;2.83;2.13;;;;;;;;;;5094870;28;20213;-59
2021/05/09 04:33:18;;;;;;;2.27;1.93;;;;;;;;;;5094646;28;20590;-59
2021/05/09 04:35:45;;;;;;;2.17;1.93;;;;;;;;;;5095167;28;20211;-60
2021/05/09 04:38:12;;;;;;;4.57;2.20;;;;;;;;;;5094543;28;20276;-58
2021/05/09 04:40:39;;;;;;;5.27;2.40;;;;;;;;;;5094850;28;20576;-60
2021/05/09 04:43:06;;;;;;;3.97;2.00;;;;;;;;;;5094608;28;20746;-58
2021/05/09 04:45:33;;;;;;;2.70;2.20;;;;;;;;;;5094528;28;20211;-59
2021/05/09 04:48:00;;;;;;;2.70;2.00;;;;;;;;;;5094356;28;20214;-60
2021/05/09 04:50:27;;;;;;;3.90;2.13;;;;;;;;;;5094628;28;20216;-58
2021/05/09 04:52:53;;;;;;;2.67;2.00;;;;;;;;;;5094685;28;20224;-60
2021/05/09 04:55:20;;;;;;;3.37;2.20;;;;;;;;;;5094197;28;20252;-60
2021/05/09 04:57:47;;;;;;;2.27;2.07;;;;;;;;;;5094246;28;20325;-58
2021/05/09 05:00:14;;;;;;;3.00;2.17;;;;;;;;;;5093799;28;20200;-60
2021/05/09 05:02:41;;;;;;;4.23;2.33;;;;;;;;;;5094196;28;20224;-57
2021/05/09 05:05:09;;;;;;;2.40;2.20;;;;;;;;;;5094470;28;20684;-60
2021/05/09 05:07:35;;;;;;;2.27;1.97;;;;;;;;;;5093968;28;20208;-60
2021/05/09 05:10:02;;;;;;;3.13;2.03;;;;;;;;;;5094115;28;20578;-60
2021/05/09 05:12:28;;;;;;;3.90;2.00;;;;;;;;;;5094072;28;20204;-60
2021/05/09 05:14:55;;;;;;;5.67;1.77;;;;;;;;;;5094060;28;20231;-60
2021/05/09 05:17:21;;;;;;;4.27;1.90;;;;;;;;;;5094171;28;20212;-58
2021/05/09 05:19:48;;;;;;;2.13;1.80;;;;;;;;;;5093956;28;20684;-59
2021/05/09 05:22:15;;;;;;;2.77;1.90;;;;;;;;;;5094195;28;20208;-60
2021/05/09 05:24:42;;;;;;;1.97;1.70;;;;;;;;;;5094328;28;20209;-59
2021/05/09 05:27:08;;;;;;;2.20;1.87;;;;;;;;;;5093782;28;20583;-60
2021/05/09 05:29:35;;;;;;;3.23;1.70;;;;;;;;;;5093173;28;20545;-60
2021/05/09 05:32:01;;;;;;;2.37;1.70;;;;;;;;;;5093612;28;20215;-59
2021/05/09 05:34:28;;;;;;;3.93;1.90;;;;;;;;;;5093719;28;20225;-59
2021/05/09 05:36:54;;;;;;;1.80;1.60;;;;;;;;;;5093624;28;20268;-59
2021/05/09 05:39:22;;;;;;;2.33;1.70;;;;;;;;;;5093441;28;20210;-59
2021/05/09 05:41:48;;;;;;;2.10;1.60;;;;;;;;;;5093460;28;20215;-59
2021/05/09 05:44:15;;;;;;;4.20;1.97;;;;;;;;;;5093633;28;20283;-60
2021/05/09 05:46:41;;;;;;;3.90;1.93;;;;;;;;;;5093679;28;20212;-60
2021/05/09 05:49:08;;;;;;;2.50;1.50;;;;;;;;;;5093702;28;20206;-59
2021/05/09 05:51:34;;;;;;;2.83;1.80;;;;;;;;;;5093250;28;20203;-60
2021/05/09 05:54:01;;;;;;;2.83;1.90;;;;;;;;;;5093428;28;20233;-60
2021/05/09 05:56:28;;;;;;;2.90;1.50;;;;;;;;;;5093112;28;20208;-60
2021/05/09 05:58:55;;;;;;;3.00;1.80;;;;;;;;;;5092462;28;20215;-60
2021/05/09 06:01:21;;;;;;;3.53;1.60;;;;;;;;;;5092681;28;20279;-60
2021/05/09 06:03:48;;;;;;;2.23;1.87;;;;;;;;;;5093285;28;20231;-60
2021/05/09 06:06:14;;;;;;;3.70;1.60;;;;;;;;;;5093247;28;20215;-59
2021/05/09 06:08:42;;;;;;;2.20;1.60;;;;;;;;;;5092983;28;20211;-59
2021/05/09 06:11:09;;;;;;;3.60;1.50;;;;;;;;;;5092899;28;20218;-58
2021/05/09 06:13:36;;;;;;;1.73;1.50;;;;;;;;;;5092970;28;20227;-60
2021/05/09 06:16:03;;;;;;;2.80;1.60;;;;;;;;;;5092622;28;20208;-59
2021/05/09 06:18:29;;;;;;;1.60;1.40;;;;;;;;;;5092249;28;20211;-60
2021/05/09 06:20:56;;;;;;;1.93;1.50;;;;;;;;;;5092236;28;20203;-60
2021/05/09 06:23:24;;;;;;;2.93;1.80;;;;;;;;;;5092385;28;20224;-60
2021/05/09 06:25:51;;;;;;;2.77;1.90;;;;;;;;;;5091629;28;20303;-59
2021/05/09 06:28:17;;;;;;;3.87;1.53;;;;;;;;;;5092314;28;20208;-60
2021/05/09 06:30:45;;;;;;;2.13;1.27;;;;;;;;;;5092793;28;20215;-60
2021/05/09 06:33:12;;;;;;;1.57;1.47;;;;;;;;;;5092693;28;20235;-60
2021/05/09 06:35:39;;;;;;;1.67;1.30;;;;;;;;;;5092484;28;20573;-60
2021/05/09 06:38:06;;;;;;;3.30;1.70;;;;;;;;;;5092343;28;20212;-60
2021/05/09 06:40:33;;;;;;;2.73;1.43;;;;;;;;;;5092176;28;20569;-59
2021/05/09 06:43:01;;;;;;;1.57;1.47;;;;;;;;;;5092369;28;20769;-60
2021/05/09 06:45:28;;;;;;;2.53;1.40;;;;;;;;;;5092484;28;20744;-59
2021/05/09 06:47:55;;;;;;;1.60;1.50;;;;;;;;;;5091836;28;20232;-60
2021/05/09 06:50:22;;;;;;;2.57;1.30;;;;;;;;;;5091844;28;20273;-60
2021/05/09 06:52:49;;;;;;;4.63;1.50;;;;;;;;;;5093689;28;20282;-60
2021/05/09 06:55:15;;;;;;;2.93;1.40;;;;;;;;;;5089964;28;20228;-60
2021/05/09 06:57:42;;;;;;;4.67;1.77;;;;;;;;;;5091577;28;20219;-59
2021/05/09 07:00:09;;;;;;;2.13;1.10;;;;;;;;;;5091769;28;20250;-60
2021/05/09 07:02:36;;;;;;;2.40;1.40;;;;;;;;;;5092133;28;20208;-59
2021/05/09 07:05:03;;;;;;;4.10;1.50;;;;;;;;;;5093152;28;20737;-59
2021/05/09 07:07:30;;;;;;;3.40;1.30;;;;;;;;;;5091870;28;20208;-58
2021/05/09 07:09:56;;;;;;;2.87;1.30;;;;;;;;;;5092076;28;20212;-61
2021/05/09 07:12:23;;;;;;;2.80;1.10;;;;;;;;;;5091157;28;20212;-59
2021/05/09 07:14:50;;;;;;;2.23;1.30;;;;;;;;;;5091641;28;20224;-59
2021/05/09 07:17:17;;;;;;;2.80;1.63;;;;;;;;;;5092087;28;20683;-59
2021/05/09 07:19:45;;;;;;;2.33;1.30;;;;;;;;;;5091031;28;20231;-59
2021/05/09 07:22:15;;;;;;;1.47;1.20;;;;;;;;;;5092220;28;20208;-59
2021/05/09 07:24:44;;;;;;;2.43;1.27;;;;;;;;;;5092054;28;20213;-60
2021/05/09 07:27:11;;;;;;;3.50;1.10;;;;;;;;;;5091811;28;20240;-60
2021/05/09 07:29:37;;;;;;;3.03;1.23;;;;;;;;;;5091552;28;20234;-54
2021/05/09 07:32:04;;;;;;;4.83;1.30;;;;;;;;;;5091895;28;20208;-57
2021/05/09 07:34:31;;;;;;;3.90;1.40;;;;;;;;;;5091451;28;20228;-57
2021/05/09 07:36:57;;;;;;;1.90;1.40;;;;;;;;;;5091989;28;20208;-60
2021/05/09 07:39:24;;;;;;;3.53;1.30;;;;;;;;;;5094144;28;20203;-58
2021/05/09 07:41:51;;;;;;;2.67;1.50;;;;;;;;;;5095519;28;20729;-57
2021/05/09 07:44:18;;;;;;;4.30;1.40;;;;;;;;;;5096132;28;20216;-57
2021/05/09 07:46:44;;;;;;;2.13;1.30;;;;;;;;;;5095718;28;20211;-57
2021/05/09 07:49:11;;;;;;;3.10;1.40;;;;;;;;;;5095930;28;20236;-56
2021/05/09 07:51:37;;;;;;;3.93;1.33;;;;;;;;;;5095473;28;20586;-58
2021/05/09 07:54:04;;;;;;;4.73;1.43;;;;;;;;;;5095686;28;20232;-59
2021/05/09 07:56:33;;;;;;;4.57;1.20;;;;;;;;;;5095723;28;20265;-58
2021/05/09 07:59:00;;;;;;;3.57;1.30;;;;;;;;;;5071571;28;20201;-58
2021/05/09 08:01:26;;;;;;;3.17;1.37;;;;;;;;;;5074860;28;20250;-58
2021/05/09 08:03:53;;;;;;;2.70;1.50;;;;;;;;;;5074552;28;20229;-66
2021/05/09 08:06:19;;;;;;;4.03;1.50;;;;;;;;;;5075186;28;20209;-63
2021/05/09 08:08:46;;;;;;;4.63;1.80;;;;;;;;;;5074407;28;20205;-62
2021/05/09 08:11:12;;;;;;;2.37;1.30;;;;;;;;;;5081792;28;20258;-62
2021/05/09 08:13:40;;;;;;;1.83;1.40;;;;;;;;;;5095099;28;20676;-63
2021/05/09 08:16:06;;;;;;;2.00;1.33;;;;;;;;;;5094818;28;20212;-63
2021/05/09 08:18:33;;;;;;;2.47;1.23;;;;;;;;;;5095102;28;20204;-63
2021/05/09 08:21:01;;;;;;;3.20;1.33;;;;;;;;;;5094942;28;20261;-62
2021/05/09 08:23:28;;;;;;;5.93;1.70;;;;;;;;;;5094973;28;20250;-63
2021/05/09 08:25:54;;;;;;;2.83;1.40;;;;;;;;;;5095077;28;20204;-63
2021/05/09 08:28:21;;;;;;;2.27;1.40;;;;;;;;;;5094834;28;20211;-64
2021/05/09 08:30:49;;;;;;;3.43;1.53;;;;;;;;;;5094762;28;20205;-64
2021/05/09 08:33:15;;;;;;;3.57;1.60;;;;;;;;;;5094861;28;20227;-63
2021/05/09 08:35:42;;;;;;;2.83;1.43;;;;;;;;;;5094510;28;20238;-64
2021/05/09 08:38:08;;;;;;;3.37;1.47;;;;;;;;;;5094315;28;20212;-65
2021/05/09 08:40:35;;;;;;;4.20;1.30;;;;;;;;;;5094434;28;20696;-65
2021/05/09 08:43:01;;;;;;;2.80;1.27;;;;;;;;;;5093996;28;20611;-64
2021/05/09 08:45:28;;;;;;;5.77;1.40;;;;;;;;;;5094920;28;20239;-64
2021/05/09 08:47:55;;;;;;;3.17;1.30;;;;;;;;;;5094235;28;20204;-62
2021/05/09 08:50:25;;;;;;;4.50;1.53;;;;;;;;;;5094170;28;20261;-62
2021/05/09 08:52:51;;;;;;;2.50;1.43;;;;;;;;;;5094466;28;20282;-62
2021/05/09 08:55:22;;;;;;;2.57;1.57;;;;;;;;;;5094374;28;20700;-63
2021/05/09 08:57:49;;;;;;;2.30;1.40;;;;;;;;;;5094257;28;20253;-62
2021/05/09 09:00:16;;;;;;;6.40;1.33;;;;;;;;;;5094175;28;20204;-58
2021/05/09 09:02:43;;;;;;;3.60;1.70;;;;;;;;;;5094519;28;20282;-60
2021/05/09 09:05:13;;;;;;;3.67;1.70;;;;;;;;;;5094461;28;20213;-60
2021/05/09 09:07:50;;;;;;;1.93;1.40;;;;;;;;;;5094440;28;20211;-59
2021/05/09 09:10:31;;;;;;;2.47;1.43;;;;;;;;;;5094039;28;20741;-58
2021/05/09 09:13:00;;;;;;;1.27;1.17;;;;;;;;;;5094519;28;20238;-60
2021/05/09 09:15:46;;;;;;;2.83;1.57;;;;;;;;;;5094268;28;20224;-59
2021/05/09 09:18:25;;;;;;;5.60;1.27;;;;;;;;;;5093030;28;20208;-59
2021/05/09 09:20:52;;;;;;;2.53;1.70;;;;;;;;;;5094047;28;20608;-59
2021/05/09 09:23:19;;;;;;;4.47;2.03;;;;;;;;;;5094264;28;20224;-60
2021/05/09 09:25:45;;;;;;;2.63;1.60;;;;;;;;;;5094136;28;20253;-60
2021/05/09 09:28:12;;;;;;;5.53;2.80;;;;;;;;;;5094005;28;20208;-57
2021/05/09 09:30:48;;;;;;;2.63;1.57;;;;;;;;;;5093741;28;20204;-57
2021/05/09 09:33:16;;;;;;;2.67;1.20;;;;;;;;;;5093777;28;20228;-59
2021/05/09 09:35:43;;;;;;;2.37;1.40;;;;;;;;;;5094020;28;20228;-59
2021/05/09 09:38:24;;;;;;;2.40;1.37;;;;;;;;;;5093836;28;20749;-58
2021/05/09 09:41:06;;;;;;;3.10;1.50;;;;;;;;;;5093649;28;20257;-59
2021/05/09 09:43:32;;;;;;;2.20;1.43;;;;;;;;;;5093397;28;20231;-59
2021/05/09 09:45:59;;;;;;;4.47;1.90;;;;;;;;;;5093988;28;20212;-59
2021/05/09 09:48:37;;;;;;;2.13;1.47;;;;;;;;;;5093843;28;20318;-59
2021/05/09 09:51:03;;;;;;;4.50;1.67;;;;;;;;;;5093215;28;20740;-59
2021/05/09 09:53:31;;;;;;;2.43;1.70;;;;;;;;;;5093431;28;20882;-59
2021/05/09 09:56:01;;;;;;;1.93;1.60;;;;;;;;;;5093398;28;20200;-58
2021/05/09 09:58:40;;;;;;;2.33;1.60;;;;;;;;;;5093876;28;20209;-56
2021/05/09 10:01:07;;;;;;;1.77;1.40;;;;;;;;;;5092422;28;20212;-58
2021/05/09 10:03:33;;;;;;;5.23;1.70;;;;;;;;;;5093499;28;20228;-59
2021/05/09 10:06:00;;;;;;;2.70;1.50;;;;;;;;;;5093221;28;20265;-59
2021/05/09 10:08:26;;;;;;;2.37;1.47;;;;;;;;;;5093236;28;20297;-58
2021/05/09 10:10:54;;;;;;;2.23;1.47;;;;;;;;;;5093287;28;20238;-58
2021/05/09 10:13:21;;;;;;;3.30;1.70;;;;;;;;;;5093522;28;20231;-58
2021/05/09 10:15:48;;;;;;;2.10;1.47;;;;;;;;;;5093126;28;20314;-59
2021/05/09 10:18:15;;;;;;;3.50;1.67;;;;;;;;;;5093065;28;20201;-59
2021/05/09 10:20:41;;;;;;;2.03;1.50;;;;;;;;;;5092447;28;20578;-59
2021/05/09 10:23:08;;;;;;;3.83;1.70;;;;;;;;;;5092881;28;20232;-59
2021/05/09 10:25:43;;;;;;;4.23;1.93;;;;;;;;;;5093165;28;20592;-59
2021/05/09 10:28:11;;;;;;;5.00;1.70;;;;;;;;;;5093060;28;20238;-59
2021/05/09 10:30:43;;;;;;;4.73;1.70;;;;;;;;;;5093644;28;20211;-59
2021/05/09 10:33:09;;;;;;;2.03;1.50;;;;;;;;;;5089020;28;20224;-63
2021/05/09 10:35:37;;;;;;;4.60;1.50;;;;;;;;;;5093070;28;20224;-64
2021/05/09 10:38:12;;;;;;;4.03;2.07;;;;;;;;;;5092794;28;20233;-63
2021/05/09 10:40:43;;;;;;;3.33;1.60;;;;;;;;;;5093971;28;20257;-64
2021/05/09 10:43:39;;;;;;;2.83;1.80;;;;;;;;;;5093209;28;20236;-65
2021/05/09 10:46:08;;;;;;;2.67;1.50;;;;;;;;;;5092763;28;20207;-63
2021/05/09 10:48:34;;;;;;;4.40;1.73;;;;;;;;;;5092314;28;20212;-63
2021/05/09 10:51:24;;;;;;;3.97;1.70;;;;;;;;;;5092629;28;20215;-65
2021/05/09 10:53:52;;;;;;;1.77;1.67;;;;;;;;;;5091958;28;20365;-63
2021/05/09 10:56:32;;;;;;;2.23;1.50;;;;;;;;;;5092286;28;20215;-64
2021/05/09 10:58:59;;;;;;;2.53;1.67;;;;;;;;;;5092215;28;20208;-65
2021/05/09 11:01:27;;;;;;;2.03;1.50;;;;;;;;;;5092294;28;20235;-67
2021/05/09 11:03:58;;;;;;;3.27;1.60;;;;;;;;;;5091860;28;20224;-66
2021/05/09 11:06:38;;;;;;;4.97;1.80;;;;;;;;;;5091894;28;20695;-65
2021/05/09 11:09:06;;;;;;;2.40;1.30;;;;;;;;;;5091814;28;20251;-65
2021/05/09 11:11:51;;;;;;;3.03;1.80;;;;;;;;;;5091827;28;20578;-64
2021/05/09 11:14:17;;;;;;;3.27;1.50;;;;;;;;;;5091165;28;20224;-65
2021/05/09 11:16:45;;;;;;;2.70;1.60;;;;;;;;;;5091748;28;20215;-65
2021/05/09 11:19:13;;;;;;;2.30;1.63;;;;;;;;;;5091767;28;20574;-64
2021/05/09 11:21:41;;;;;;;3.23;1.77;;;;;;;;;;5091743;28;20231;-64
2021/05/09 11:24:08;;;;;;;3.97;1.67;;;;;;;;;;5091530;28;20228;-64
2021/05/09 11:26:38;;;;;;;2.30;1.60;;;;;;;;;;5092116;28;20215;-64
2021/05/09 11:29:05;;;;;;;7.90;2.23;;;;;;;;;;5091686;28;20204;-64
2021/05/09 11:31:31;;;;;;;3.20;2.10;;;;;;;;;;5091865;28;20208;-64
2021/05/09 11:33:59;;;;;;;4.67;1.57;;;;;;;;;;5091505;28;20330;-64
2021/05/09 11:36:26;;;;;;;4.80;1.63;;;;;;;;;;5091912;28;20212;-64
2021/05/09 11:38:52;;;;;;;4.43;1.80;;;;;;;;;;5091780;28;20211;-64
2021/05/09 11:41:19;;;;;;;4.90;1.70;;;;;;;;;;5091533;28;20208;-64
2021/05/09 11:44:00;;;;;;;8.33;2.10;;;;;;;;;;5091093;28;20243;-66
2021/05/09 11:46:33;;;;;;;3.77;1.93;;;;;;;;;;5091420;28;20208;-65
2021/05/09 11:49:14;;;;;;;5.07;1.60;;;;;;;;;;5091658;28;20215;-65
2021/05/09 11:51:53;;;;;;;3.63;1.77;;;;;;;;;;5091469;28;20207;-66
2021/05/09 11:54:20;;;;;;;4.93;1.70;;;;;;;;;;5090786;28;20663;-66
2021/05/09 11:56:50;;;;;;;1.83;1.50;;;;;;;;;;5091188;28;20629;-65
2021/05/09 11:59:30;;;;;;;3.87;1.97;;;;;;;;;;5091137;28;20727;-66
2021/05/09 12:01:56;;;;;;;3.23;1.70;;;;;;;;;;5090973;28;20208;-65
2021/05/09 12:04:28;;;;;;;2.50;1.57;;;;;;;;;;5091169;28;20224;-65
2021/05/09 12:06:56;;;;;;;2.33;1.57;;;;;;;;;;5091231;28;20295;-66
2021/05/09 12:09:22;;;;;;;2.70;1.60;;;;;;;;;;5091189;28;20208;-65
2021/05/09 12:11:49;;;;;;;3.43;1.50;;;;;;;;;;5091148;28;20235;-65
2021/05/09 12:14:16;;;;;;;2.40;1.30;;;;;;;;;;5090878;28;20684;-64
2021/05/09 12:16:42;;;;;;;4.17;1.77;;;;;;;;;;5091354;28;20205;-66
2021/05/09 12:19:09;;;;;;;2.53;1.73;;;;;;;;;;5091205;28;20704;-65
2021/05/09 12:21:36;;;;;;;8.13;2.30;;;;;;;;;;5091055;28;20205;-63
2021/05/09 12:24:04;;;;;;;3.87;1.50;;;;;;;;;;5091098;28;20231;-65
2021/05/09 12:26:30;;;;;;;2.67;1.40;;;;;;;;;;5095235;28;20356;-65
2021/05/09 12:29:11;;;;;;;6.77;1.50;;;;;;;;;;5095085;28;20204;-65
2021/05/09 12:31:38;;;;;;;3.43;1.47;;;;;;;;;;5094667;28;20608;-64
2021/05/09 12:34:04;;;;;;;2.10;1.40;;;;;;;;;;5094418;28;20228;-64
2021/05/09 12:36:31;;;;;;;2.33;1.50;;;;;;;;;;5094581;28;20219;-65
2021/05/09 12:39:00;;;;;;;4.17;1.97;;;;;;;;;;5094948;28;20548;-65
2021/05/09 12:41:26;;;;;;;5.97;1.57;;;;;;;;;;5094541;28;20208;-64
2021/05/09 12:43:54;;;;;;;4.43;1.77;;;;;;;;;;5094357;28;20743;-64
2021/05/09 12:46:38;;;;;;;1.53;1.27;;;;;;;;;;5094600;28;20204;-64
2021/05/09 12:49:09;;;;;;;2.77;1.50;;;;;;;;;;5094452;28;20212;-65
2021/05/09 12:51:35;;;;;;;2.10;1.47;;;;;;;;;;5094472;28;20661;-65
2021/05/09 12:54:03;;;;;;;2.07;1.40;;;;;;;;;;5094190;28;20224;-64
2021/05/09 12:56:30;;;;;;;1.80;1.20;;;;;;;;;;5094570;28;20204;-66
2021/05/09 12:59:15;;;;;;;3.87;1.63;;;;;;;;;;5094253;28;20684;-64
2021/05/09 13:01:43;;;;;;;5.47;1.73;;;;;;;;;;5094441;28;20234;-64
2021/05/09 13:04:28;;;;;;;4.10;1.50;;;;;;;;;;5094080;28;20230;-65
2021/05/09 13:06:55;;;;;;;3.83;1.50;;;;;;;;;;5094409;28;20211;-65
2021/05/09 13:09:22;;;;;;;4.43;1.90;;;;;;;;;;5094177;28;20208;-65
2021/05/09 13:11:49;;;;;;;2.77;1.30;;;;;;;;;;5093826;28;20204;-65
2021/05/09 13:14:15;;;;;;;2.17;1.20;;;;;;;;;;5093651;28;20232;-65
2021/05/09 13:16:42;;;;;;;3.00;1.60;;;;;;;;;;5094220;28;20208;-64
2021/05/09 13:19:08;;;;;;;5.90;1.60;;;;;;;;;;5094010;28;20204;-65
2021/05/09 13:21:35;;;;;;;2.30;1.50;;;;;;;;;;5093990;28;20211;-65
2021/05/09 13:24:01;;;;;;;3.13;1.67;;;;;;;;;;5093583;28;20234;-65
2021/05/09 13:26:29;;;;;;;2.43;1.50;;;;;;;;;;5093720;28;20583;-66
2021/05/09 13:28:55;;;;;;;3.30;1.70;;;;;;;;;;5093973;28;20265;-65
2021/05/09 13:31:22;;;;;;;3.13;1.80;;;;;;;;;;5093678;28;20212;-65
2021/05/09 13:33:49;;;;;;;2.83;1.67;;;;;;;;;;5093565;28;20315;-64
2021/05/09 13:36:15;;;;;;;3.87;1.80;;;;;;;;;;5092878;28;20794;-64
2021/05/09 13:38:43;;;;;;;2.67;1.50;;;;;;;;;;5093463;28;20234;-65
2021/05/09 13:41:10;;;;;;;3.97;1.50;;;;;;;;;;5093221;28;20223;-66
2021/05/09 13:43:37;;;;;;;3.20;1.73;;;;;;;;;;5093049;28;20236;-65
2021/05/09 13:46:04;;;;;;;5.77;1.77;;;;;;;;;;5093648;28;20307;-67
2021/05/09 13:48:30;;;;;;;3.73;1.70;;;;;;;;;;5093281;28;20673;-65
2021/05/09 13:50:57;;;;;;;3.57;1.87;;;;;;;;;;5093139;28;20681;-65
2021/05/09 13:53:26;;;;;;;3.00;1.60;;;;;;;;;;5092934;28;20783;-66
2021/05/09 13:55:52;;;;;;;3.23;1.50;;;;;;;;;;5092929;28;20242;-67
2021/05/09 13:58:19;;;;;;;2.93;1.90;;;;;;;;;;5092906;28;20584;-64
2021/05/09 14:00:47;;;;;;;3.23;1.77;;;;;;;;;;5093049;28;20204;-65
2021/05/09 14:03:13;;;;;;;4.23;1.43;;;;;;;;;;5091802;28;20243;-65
2021/05/09 14:05:40;;;;;;;2.70;1.40;;;;;;;;;;5092980;28;20200;-66
2021/05/09 14:08:07;;;;;;;3.37;1.50;;;;;;;;;;5092430;28;20208;-66
2021/05/09 14:10:33;;;;;;;3.73;1.83;;;;;;;;;;5093216;28;20204;-66
2021/05/09 14:13:00;;;;;;;2.23;1.80;;;;;;;;;;5092715;28;20228;-71
2021/05/09 14:15:26;;;;;;;5.87;1.77;;;;;;;;;;5093050;28;20720;-69
2021/05/09 14:17:54;;;;;;;10.57;1.60;;;;;;;;;;5093066;28;20204;-68
2021/05/09 14:20:21;;;;;;;2.63;1.67;;;;;;;;;;5094841;28;20209;-65
2021/05/09 14:22:47;;;;;;;4.07;1.60;;;;;;;;;;5092214;28;20255;-67
2021/05/09 14:25:15;;;;;;;3.90;1.50;;;;;;;;;;5093255;28;20205;-67
2021/05/09 14:27:42;;;;;;;4.03;1.87;;;;;;;;;;5093080;28;20212;-68
2021/05/09 14:30:09;;;;;;;3.30;1.60;;;;;;;;;;5093150;28;20227;-68
2021/05/09 14:32:35;;;;;;;2.77;1.80;;;;;;;;;;5093112;28;20205;-70
2021/05/09 14:35:03;;;;;;;2.23;1.60;;;;;;;;;;5092851;28;20228;-65
2021/05/09 14:37:30;;;;;;;3.67;1.87;;;;;;;;;;5092592;28;20352;-64
2021/05/09 14:39:56;;;;;;;4.20;1.57;;;;;;;;;;5092415;28;20239;-64
2021/05/09 14:42:23;;;;;;;4.60;1.63;;;;;;;;;;5092239;28;20212;-65
2021/05/09 14:44:50;;;;;;;3.70;1.60;;;;;;;;;;5092193;28;20203;-64
2021/05/09 14:47:17;;;;;;;3.57;1.67;;;;;;;;;;5092388;28;20582;-68